sensor_id;sensor_type;location;lat;lon;timestamp;temperature;humidity
9099;DHT22;4585;51.414;6.776;2022-07-04T00:00:11;14.20;1.00
9099;DHT22;4585;51.414;6.776;2022-07-04T00:02:41;14.10;1.00
9099;DHT22;4585;51.414;6.776;2022-07-04T00:05:08;14.10;1.00
9099;DHT22;4585;51.414;6.776;2022-07-04T00:07:39;14.10;1.00
9099;DHT22;4585;51.414;6.776;2022-07-04T00:10:06;14.00;1.00
9099;DHT22;4585;51.414;6.776;2022-07-04T00:12:33;14.00;1.00
9099;DHT22;4585;51.414;6.776;2022-07-04T00:14:58;14.00;99.90
9099;DHT22;4585;51.414;6.776;2022-07-04T00:17:24;14.00;99.90
9099;DHT22;4585;51.414;6.776;2022-07-04T00:19:50;14.00;99.90
9099;DHT22;4585;51.414;6.776;2022-07-04T00:22:15;13.90;99.90
9099;DHT22;4585;51.414;6.776;2022-07-04T00:24:41;13.90;99.90
9099;DHT22;4585;51.414;6.776;2022-07-04T00:27:07;13.90;99.90
9099;DHT22;4585;51.414;6.776;2022-07-04T00:29:32;13.90;1.00
9099;DHT22;4585;51.414;6.776;2022-07-04T00:31:59;13.90;99.90
9099;DHT22;4585;51.414;6.776;2022-07-04T00:34:25;13.80;1.00
9099;DHT22;4585;51.414;6.776;2022-07-04T00:36:51;13.80;1.00
9099;DHT22;4585;51.414;6.776;2022-07-04T00:39:16;13.70;18.20
9099;DHT22;4585;51.414;6.776;2022-07-04T00:41:42;13.60;1.00
9099;DHT22;4585;51.414;6.776;2022-07-04T00:44:12;13.60;99.90
9099;DHT22;4585;51.414;6.776;2022-07-04T00:46:42;13.50;99.90
9099;DHT22;4585;51.414;6.776;2022-07-04T00:49:09;13.40;1.00
9099;DHT22;4585;51.414;6.776;2022-07-04T00:51:35;13.30;99.90
9099;DHT22;4585;51.414;6.776;2022-07-04T00:54:02;13.30;1.00
9099;DHT22;4585;51.414;6.776;2022-07-04T00:56:28;13.20;1.00
9099;DHT22;4585;51.414;6.776;2022-07-04T00:58:55;13.10;1.00
9099;DHT22;4585;51.414;6.776;2022-07-04T01:01:21;13.10;1.00
9099;DHT22;4585;51.414;6.776;2022-07-04T01:03:47;13.00;90.70
9099;DHT22;4585;51.414;6.776;2022-07-04T01:06:17;12.90;99.90
9099;DHT22;4585;51.414;6.776;2022-07-04T01:08:44;12.80;1.00
9099;DHT22;4585;51.414;6.776;2022-07-04T01:11:10;12.80;1.00
9099;DHT22;4585;51.414;6.776;2022-07-04T01:13:36;12.80;99.90
9099;DHT22;4585;51.414;6.776;2022-07-04T01:16:03;12.80;99.90
9099;DHT22;4585;51.414;6.776;2022-07-04T01:18:30;12.70;1.00
9099;DHT22;4585;51.414;6.776;2022-07-04T01:20:55;12.60;99.90
9099;DHT22;4585;51.414;6.776;2022-07-04T01:23:21;12.60;1.00
9099;DHT22;4585;51.414;6.776;2022-07-04T01:25:47;12.50;1.00
9099;DHT22;4585;51.414;6.776;2022-07-04T01:28:16;12.50;1.00
9099;DHT22;4585;51.414;6.776;2022-07-04T01:30:42;12.40;99.90
9099;DHT22;4585;51.414;6.776;2022-07-04T01:33:07;12.30;99.90
9099;DHT22;4585;51.414;6.776;2022-07-04T01:35:33;12.20;99.90
9099;DHT22;4585;51.414;6.776;2022-07-04T01:37:59;12.20;99.90
9099;DHT22;4585;51.414;6.776;2022-07-04T01:40:25;12.20;99.90
9099;DHT22;4585;51.414;6.776;2022-07-04T01:42:50;12.10;1.00
9099;DHT22;4585;51.414;6.776;2022-07-04T01:45:16;12.10;1.00
9099;DHT22;4585;51.414;6.776;2022-07-04T01:47:42;12.10;1.00
9099;DHT22;4585;51.414;6.776;2022-07-04T01:50:09;12.10;1.00
9099;DHT22;4585;51.414;6.776;2022-07-04T01:52:38;12.00;1.00
9099;DHT22;4585;51.414;6.776;2022-07-04T01:55:05;12.00;1.00
9099;DHT22;4585;51.414;6.776;2022-07-04T01:57:30;11.90;99.90
9099;DHT22;4585;51.414;6.776;2022-07-04T01:59:56;11.90;99.90
9099;DHT22;4585;51.414;6.776;2022-07-04T02:02:40;11.90;99.90
9099;DHT22;4585;51.414;6.776;2022-07-04T02:05:06;11.80;99.90
9099;DHT22;4585;51.414;6.776;2022-07-04T02:07:32;11.80;99.90
9099;DHT22;4585;51.414;6.776;2022-07-04T02:09:57;11.80;99.90
9099;DHT22;4585;51.414;6.776;2022-07-04T02:12:23;11.80;99.90
9099;DHT22;4585;51.414;6.776;2022-07-04T02:15:07;11.70;99.90
9099;DHT22;4585;51.414;6.776;2022-07-04T02:17:33;11.70;99.90
9099;DHT22;4585;51.414;6.776;2022-07-04T02:19:59;11.70;99.90
9099;DHT22;4585;51.414;6.776;2022-07-04T02:22:25;11.70;99.90
9099;DHT22;4585;51.414;6.776;2022-07-04T02:24:50;11.60;99.90
9099;DHT22;4585;51.414;6.776;2022-07-04T02:27:16;11.60;99.90
9099;DHT22;4585;51.414;6.776;2022-07-04T02:30:09;11.60;99.90
9099;DHT22;4585;51.414;6.776;2022-07-04T02:32:41;11.60;99.90
9099;DHT22;4585;51.414;6.776;2022-07-04T02:35:11;11.50;99.90
9099;DHT22;4585;51.414;6.776;2022-07-04T02:37:39;11.50;99.90
9099;DHT22;4585;51.414;6.776;2022-07-04T02:40:11;11.40;99.90
9099;DHT22;4585;51.414;6.776;2022-07-04T02:42:43;11.40;99.90
9099;DHT22;4585;51.414;6.776;2022-07-04T02:45:09;11.30;99.90
9099;DHT22;4585;51.414;6.776;2022-07-04T02:47:41;11.40;99.90
9099;DHT22;4585;51.414;6.776;2022-07-04T02:50:10;11.30;99.90
9099;DHT22;4585;51.414;6.776;2022-07-04T02:52:42;11.30;99.90
9099;DHT22;4585;51.414;6.776;2022-07-04T02:55:11;11.30;99.90
9099;DHT22;4585;51.414;6.776;2022-07-04T02:57:43;11.30;99.90
9099;DHT22;4585;51.414;6.776;2022-07-04T03:00:13;11.20;99.90
9099;DHT22;4585;51.414;6.776;2022-07-04T03:02:45;11.30;99.90
9099;DHT22;4585;51.414;6.776;2022-07-04T03:05:17;11.30;99.90
9099;DHT22;4585;51.414;6.776;2022-07-04T03:07:51;11.30;99.90
9099;DHT22;4585;51.414;6.776;2022-07-04T03:10:23;11.20;99.90
9099;DHT22;4585;51.414;6.776;2022-07-04T03:12:55;11.20;99.90
9099;DHT22;4585;51.414;6.776;2022-07-04T03:15:23;11.20;99.90
9099;DHT22;4585;51.414;6.776;2022-07-04T03:17:49;11.10;99.90
9099;DHT22;4585;51.414;6.776;2022-07-04T03:20:19;11.20;99.90
9099;DHT22;4585;51.414;6.776;2022-07-04T03:22:53;11.20;99.90
9099;DHT22;4585;51.414;6.776;2022-07-04T03:25:20;11.20;99.90
9099;DHT22;4585;51.414;6.776;2022-07-04T03:27:52;11.20;99.90
9099;DHT22;4585;51.414;6.776;2022-07-04T03:30:21;11.10;99.90
9099;DHT22;4585;51.414;6.776;2022-07-04T03:32:53;11.10;99.90
9099;DHT22;4585;51.414;6.776;2022-07-04T03:35:27;11.10;99.90
9099;DHT22;4585;51.414;6.776;2022-07-04T03:38:00;11.10;99.90
9099;DHT22;4585;51.414;6.776;2022-07-04T03:40:32;11.10;99.90
9099;DHT22;4585;51.414;6.776;2022-07-04T03:43:02;11.10;99.90
9099;DHT22;4585;51.414;6.776;2022-07-04T03:45:29;11.10;99.90
9099;DHT22;4585;51.414;6.776;2022-07-04T03:47:58;11.10;99.90
9099;DHT22;4585;51.414;6.776;2022-07-04T03:50:28;11.10;99.90
9099;DHT22;4585;51.414;6.776;2022-07-04T03:53:02;11.10;99.90
9099;DHT22;4585;51.414;6.776;2022-07-04T03:55:34;11.00;99.90
9099;DHT22;4585;51.414;6.776;2022-07-04T03:58:03;11.00;99.90
9099;DHT22;4585;51.414;6.776;2022-07-04T04:00:34;11.00;99.90
9099;DHT22;4585;51.414;6.776;2022-07-04T04:03:05;11.00;99.90
9099;DHT22;4585;51.414;6.776;2022-07-04T04:05:51;11.00;99.90
9099;DHT22;4585;51.414;6.776;2022-07-04T04:08:23;11.10;99.90
9099;DHT22;4585;51.414;6.776;2022-07-04T04:10:51;11.10;99.90
9099;DHT22;4585;51.414;6.776;2022-07-04T04:13:20;11.00;99.90
9099;DHT22;4585;51.414;6.776;2022-07-04T04:15:49;11.10;99.90
9099;DHT22;4585;51.414;6.776;2022-07-04T04:18:18;11.10;99.90
9099;DHT22;4585;51.414;6.776;2022-07-04T04:20:47;11.10;99.90
9099;DHT22;4585;51.414;6.776;2022-07-04T04:23:18;11.20;99.90
9099;DHT22;4585;51.414;6.776;2022-07-04T04:25:47;11.20;99.90
9099;DHT22;4585;51.414;6.776;2022-07-04T04:28:20;11.30;99.90
9099;DHT22;4585;51.414;6.776;2022-07-04T04:30:46;11.30;99.90
9099;DHT22;4585;51.414;6.776;2022-07-04T04:33:12;11.30;99.90
9099;DHT22;4585;51.414;6.776;2022-07-04T04:35:38;11.40;99.90
9099;DHT22;4585;51.414;6.776;2022-07-04T04:38:05;11.40;99.90
9099;DHT22;4585;51.414;6.776;2022-07-04T04:40:34;11.40;99.90
9099;DHT22;4585;51.414;6.776;2022-07-04T04:43:00;11.50;99.90
9099;DHT22;4585;51.414;6.776;2022-07-04T04:45:34;11.50;99.90
9099;DHT22;4585;51.414;6.776;2022-07-04T04:48:00;11.50;99.90
9099;DHT22;4585;51.414;6.776;2022-07-04T04:50:26;11.60;99.90
9099;DHT22;4585;51.414;6.776;2022-07-04T04:52:52;11.60;99.90
9099;DHT22;4585;51.414;6.776;2022-07-04T04:55:24;11.70;99.90
9099;DHT22;4585;51.414;6.776;2022-07-04T04:57:53;11.80;99.90
9099;DHT22;4585;51.414;6.776;2022-07-04T05:00:22;11.90;99.90
9099;DHT22;4585;51.414;6.776;2022-07-04T05:02:51;11.90;99.90
9099;DHT22;4585;51.414;6.776;2022-07-04T05:05:27;12.00;99.90
9099;DHT22;4585;51.414;6.776;2022-07-04T05:07:53;12.10;99.90
9099;DHT22;4585;51.414;6.776;2022-07-04T05:10:21;12.20;99.90
9099;DHT22;4585;51.414;6.776;2022-07-04T05:12:50;12.30;99.90
9099;DHT22;4585;51.414;6.776;2022-07-04T05:15:19;12.30;99.90
9099;DHT22;4585;51.414;6.776;2022-07-04T05:17:45;12.50;99.90
9099;DHT22;4585;51.414;6.776;2022-07-04T05:20:14;12.60;99.90
9099;DHT22;4585;51.414;6.776;2022-07-04T05:22:43;12.70;99.90
9099;DHT22;4585;51.414;6.776;2022-07-04T05:25:09;12.90;99.90
9099;DHT22;4585;51.414;6.776;2022-07-04T05:27:38;12.90;99.90
9099;DHT22;4585;51.414;6.776;2022-07-04T05:30:10;13.00;99.90
9099;DHT22;4585;51.414;6.776;2022-07-04T05:32:39;13.20;99.90
9099;DHT22;4585;51.414;6.776;2022-07-04T05:35:08;13.40;99.90
9099;DHT22;4585;51.414;6.776;2022-07-04T05:37:36;13.60;99.90
9099;DHT22;4585;51.414;6.776;2022-07-04T05:40:03;13.60;99.90
9099;DHT22;4585;51.414;6.776;2022-07-04T05:42:34;13.90;99.90
9099;DHT22;4585;51.414;6.776;2022-07-04T05:45:06;14.10;99.90
9099;DHT22;4585;51.414;6.776;2022-07-04T05:47:32;14.30;99.90
9099;DHT22;4585;51.414;6.776;2022-07-04T05:50:01;14.50;99.90
9099;DHT22;4585;51.414;6.776;2022-07-04T05:52:32;14.60;99.90
9099;DHT22;4585;51.414;6.776;2022-07-04T05:55:01;14.80;99.90
9099;DHT22;4585;51.414;6.776;2022-07-04T05:57:27;14.90;99.90
9099;DHT22;4585;51.414;6.776;2022-07-04T05:59:53;15.00;99.90
9099;DHT22;4585;51.414;6.776;2022-07-04T06:02:31;15.20;99.90
9099;DHT22;4585;51.414;6.776;2022-07-04T06:05:00;15.20;99.90
9099;DHT22;4585;51.414;6.776;2022-07-04T06:07:29;15.40;99.90
9099;DHT22;4585;51.414;6.776;2022-07-04T06:09:57;15.60;99.90
9099;DHT22;4585;51.414;6.776;2022-07-04T06:12:23;15.70;99.90
9099;DHT22;4585;51.414;6.776;2022-07-04T06:14:52;15.90;99.90
9099;DHT22;4585;51.414;6.776;2022-07-04T06:17:21;16.00;99.90
9099;DHT22;4585;51.414;6.776;2022-07-04T06:19:48;16.20;99.90
9099;DHT22;4585;51.414;6.776;2022-07-04T06:22:14;16.30;99.90
9099;DHT22;4585;51.414;6.776;2022-07-04T06:24:40;16.40;99.90
9099;DHT22;4585;51.414;6.776;2022-07-04T06:27:08;16.50;99.90
9099;DHT22;4585;51.414;6.776;2022-07-04T06:29:37;16.60;99.90
9099;DHT22;4585;51.414;6.776;2022-07-04T06:32:07;16.70;99.90
9099;DHT22;4585;51.414;6.776;2022-07-04T06:34:33;16.80;1.00
9099;DHT22;4585;51.414;6.776;2022-07-04T06:37:17;17.00;99.90
9099;DHT22;4585;51.414;6.776;2022-07-04T06:39:47;17.10;1.00
9099;DHT22;4585;51.414;6.776;2022-07-04T06:42:13;17.30;1.00
9099;DHT22;4585;51.414;6.776;2022-07-04T06:44:39;17.40;99.90
9099;DHT22;4585;51.414;6.776;2022-07-04T06:47:05;17.60;39.80
9099;DHT22;4585;51.414;6.776;2022-07-04T06:49:33;17.60;99.90
9099;DHT22;4585;51.414;6.776;2022-07-04T06:52:00;17.80;1.00
9099;DHT22;4585;51.414;6.776;2022-07-04T06:54:34;17.90;1.00
9099;DHT22;4585;51.414;6.776;2022-07-04T06:57:00;18.00;99.90
9099;DHT22;4585;51.414;6.776;2022-07-04T06:59:28;18.30;1.00
9099;DHT22;4585;51.414;6.776;2022-07-04T07:01:57;18.40;1.00
9099;DHT22;4585;51.414;6.776;2022-07-04T07:04:29;18.50;1.00
9099;DHT22;4585;51.414;6.776;2022-07-04T07:06:55;18.70;99.90
9099;DHT22;4585;51.414;6.776;2022-07-04T07:09:27;18.80;99.90
9099;DHT22;4585;51.414;6.776;2022-07-04T07:11:56;18.90;18.30
9099;DHT22;4585;51.414;6.776;2022-07-04T07:14:22;19.00;7.60
9099;DHT22;4585;51.414;6.776;2022-07-04T07:16:50;19.20;17.10
9099;DHT22;4585;51.414;6.776;2022-07-04T07:19:25;19.30;1.00
9099;DHT22;4585;51.414;6.776;2022-07-04T07:22:00;19.40;1.00
9099;DHT22;4585;51.414;6.776;2022-07-04T07:24:26;19.60;1.00
9099;DHT22;4585;51.414;6.776;2022-07-04T07:26:59;19.70;1.00
9099;DHT22;4585;51.414;6.776;2022-07-04T07:29:30;19.80;99.90
9099;DHT22;4585;51.414;6.776;2022-07-04T07:31:59;19.90;1.00
9099;DHT22;4585;51.414;6.776;2022-07-04T07:34:25;20.10;99.90
9099;DHT22;4585;51.414;6.776;2022-07-04T07:36:51;20.10;1.00
9099;DHT22;4585;51.414;6.776;2022-07-04T07:39:17;20.10;1.00
9099;DHT22;4585;51.414;6.776;2022-07-04T07:41:43;20.20;1.00
9099;DHT22;4585;51.414;6.776;2022-07-04T07:44:12;20.30;1.00
9099;DHT22;4585;51.414;6.776;2022-07-04T07:46:44;20.30;1.00
9099;DHT22;4585;51.414;6.776;2022-07-04T07:49:13;20.30;1.00
9099;DHT22;4585;51.414;6.776;2022-07-04T07:51:40;20.40;1.00
9099;DHT22;4585;51.414;6.776;2022-07-04T07:54:06;20.60;1.00
9099;DHT22;4585;51.414;6.776;2022-07-04T07:56:32;20.60;1.00
9099;DHT22;4585;51.414;6.776;2022-07-04T07:58:58;20.70;1.00
9099;DHT22;4585;51.414;6.776;2022-07-04T08:01:27;20.90;99.90
9099;DHT22;4585;51.414;6.776;2022-07-04T08:03:58;20.80;99.90
9099;DHT22;4585;51.414;6.776;2022-07-04T08:06:47;21.00;99.90
9099;DHT22;4585;51.414;6.776;2022-07-04T08:09:16;21.00;99.90
9099;DHT22;4585;51.414;6.776;2022-07-04T08:11:42;21.10;99.90
9099;DHT22;4585;51.414;6.776;2022-07-04T08:14:08;21.20;99.90
9099;DHT22;4585;51.414;6.776;2022-07-04T08:16:40;21.10;99.90
9099;DHT22;4585;51.414;6.776;2022-07-04T08:19:06;21.10;99.90
9099;DHT22;4585;51.414;6.776;2022-07-04T08:21:35;21.30;99.90
9099;DHT22;4585;51.414;6.776;2022-07-04T08:24:07;21.30;95.80
9099;DHT22;4585;51.414;6.776;2022-07-04T08:26:33;21.40;99.90
9099;DHT22;4585;51.414;6.776;2022-07-04T08:29:02;21.50;44.60
9099;DHT22;4585;51.414;6.776;2022-07-04T08:31:37;21.40;1.00
9099;DHT22;4585;51.414;6.776;2022-07-04T08:34:03;21.50;99.90
9099;DHT22;4585;51.414;6.776;2022-07-04T08:36:34;21.70;99.90
9099;DHT22;4585;51.414;6.776;2022-07-04T08:39:06;21.70;14.00
9099;DHT22;4585;51.414;6.776;2022-07-04T08:41:38;21.80;94.90
9099;DHT22;4585;51.414;6.776;2022-07-04T08:44:07;21.80;49.10
9099;DHT22;4585;51.414;6.776;2022-07-04T08:46:40;21.80;99.90
9099;DHT22;4585;51.414;6.776;2022-07-04T08:49:21;22.00;99.90
9099;DHT22;4585;51.414;6.776;2022-07-04T08:52:10;22.20;99.90
9099;DHT22;4585;51.414;6.776;2022-07-04T08:54:44;22.30;99.90
9099;DHT22;4585;51.414;6.776;2022-07-04T08:57:28;22.30;1.00
9099;DHT22;4585;51.414;6.776;2022-07-04T09:00:13;22.30;99.90
9099;DHT22;4585;51.414;6.776;2022-07-04T09:02:42;22.30;3.50
9099;DHT22;4585;51.414;6.776;2022-07-04T09:05:13;22.30;30.40
9099;DHT22;4585;51.414;6.776;2022-07-04T09:07:44;22.40;5.30
9099;DHT22;4585;51.414;6.776;2022-07-04T09:10:19;22.50;1.00
9099;DHT22;4585;51.414;6.776;2022-07-04T09:12:51;22.70;1.00
9099;DHT22;4585;51.414;6.776;2022-07-04T09:15:20;22.70;1.00
9099;DHT22;4585;51.414;6.776;2022-07-04T09:17:49;22.90;1.00
9099;DHT22;4585;51.414;6.776;2022-07-04T09:20:23;22.90;1.00
9099;DHT22;4585;51.414;6.776;2022-07-04T09:22:53;23.00;1.00
9099;DHT22;4585;51.414;6.776;2022-07-04T09:25:29;23.00;1.00
9099;DHT22;4585;51.414;6.776;2022-07-04T09:27:57;22.80;1.00
9099;DHT22;4585;51.414;6.776;2022-07-04T09:30:45;23.10;1.00
9099;DHT22;4585;51.414;6.776;2022-07-04T09:33:20;23.10;1.00
9099;DHT22;4585;51.414;6.776;2022-07-04T09:35:49;23.10;1.00
9099;DHT22;4585;51.414;6.776;2022-07-04T09:38:22;23.30;1.00
9099;DHT22;4585;51.414;6.776;2022-07-04T09:40:54;23.40;1.00
9099;DHT22;4585;51.414;6.776;2022-07-04T09:44:02;23.50;1.00
9099;DHT22;4585;51.414;6.776;2022-07-04T09:46:32;23.30;1.00
9099;DHT22;4585;51.414;6.776;2022-07-04T09:49:01;23.10;1.00
9099;DHT22;4585;51.414;6.776;2022-07-04T09:51:46;23.20;1.00
9099;DHT22;4585;51.414;6.776;2022-07-04T09:56:47;23.10;1.00
9099;DHT22;4585;51.414;6.776;2022-07-04T09:59:17;23.30;1.00
9099;DHT22;4585;51.414;6.776;2022-07-04T10:01:47;23.30;1.00
9099;DHT22;4585;51.414;6.776;2022-07-04T10:04:21;23.40;99.90
9099;DHT22;4585;51.414;6.776;2022-07-04T10:06:53;23.60;99.90
9099;DHT22;4585;51.414;6.776;2022-07-04T10:09:19;23.70;49.00
9099;DHT22;4585;51.414;6.776;2022-07-04T10:11:53;23.90;1.00
9099;DHT22;4585;51.414;6.776;2022-07-04T10:14:25;24.00;99.90
9099;DHT22;4585;51.414;6.776;2022-07-04T10:16:57;24.00;99.90
9099;DHT22;4585;51.414;6.776;2022-07-04T10:19:30;23.80;99.90
9099;DHT22;4585;51.414;6.776;2022-07-04T10:22:00;23.80;99.90
9099;DHT22;4585;51.414;6.776;2022-07-04T10:24:33;23.80;1.00
9099;DHT22;4585;51.414;6.776;2022-07-04T10:26:59;23.80;1.00
9099;DHT22;4585;51.414;6.776;2022-07-04T10:29:37;23.90;1.00
9099;DHT22;4585;51.414;6.776;2022-07-04T10:32:05;24.00;91.60
9099;DHT22;4585;51.414;6.776;2022-07-04T10:34:41;23.90;1.00
9099;DHT22;4585;51.414;6.776;2022-07-04T10:37:12;23.80;99.90
9099;DHT22;4585;51.414;6.776;2022-07-04T10:39:44;23.90;1.00
9099;DHT22;4585;51.414;6.776;2022-07-04T10:42:23;24.00;1.00
9099;DHT22;4585;51.414;6.776;2022-07-04T10:45:00;24.00;1.00
9099;DHT22;4585;51.414;6.776;2022-07-04T10:47:34;24.00;1.00
9099;DHT22;4585;51.414;6.776;2022-07-04T10:50:04;24.00;1.00
9099;DHT22;4585;51.414;6.776;2022-07-04T10:52:35;24.10;1.00
9099;DHT22;4585;51.414;6.776;2022-07-04T10:55:11;24.00;1.00
9099;DHT22;4585;51.414;6.776;2022-07-04T10:57:42;24.10;1.00
9099;DHT22;4585;51.414;6.776;2022-07-04T11:00:13;24.30;1.00
9099;DHT22;4585;51.414;6.776;2022-07-04T11:02:44;24.30;1.00
9099;DHT22;4585;51.414;6.776;2022-07-04T11:05:13;23.90;1.00
9099;DHT22;4585;51.414;6.776;2022-07-04T11:18:07;24.50;1.00
9099;DHT22;4585;51.414;6.776;2022-07-04T11:20:41;24.60;1.00
9099;DHT22;4585;51.414;6.776;2022-07-04T11:23:18;24.70;1.00
9099;DHT22;4585;51.414;6.776;2022-07-04T11:25:56;24.60;1.00
9099;DHT22;4585;51.414;6.776;2022-07-04T11:28:27;24.00;1.00
9099;DHT22;4585;51.414;6.776;2022-07-04T11:31:03;23.70;1.00
9099;DHT22;4585;51.414;6.776;2022-07-04T11:33:34;24.00;1.00
9099;DHT22;4585;51.414;6.776;2022-07-04T11:36:18;24.20;1.00
9099;DHT22;4585;51.414;6.776;2022-07-04T11:39:13;24.00;1.00
9099;DHT22;4585;51.414;6.776;2022-07-04T11:41:47;23.90;1.00
9099;DHT22;4585;51.414;6.776;2022-07-04T11:44:40;23.70;1.00
9099;DHT22;4585;51.414;6.776;2022-07-04T11:47:38;23.50;1.00
9099;DHT22;4585;51.414;6.776;2022-07-04T11:50:09;23.50;1.00
9099;DHT22;4585;51.414;6.776;2022-07-04T11:52:41;23.80;1.00
9099;DHT22;4585;51.414;6.776;2022-07-04T11:55:12;24.00;1.00
9099;DHT22;4585;51.414;6.776;2022-07-04T11:57:49;24.00;99.90
9099;DHT22;4585;51.414;6.776;2022-07-04T12:00:29;24.10;87.80
9099;DHT22;4585;51.414;6.776;2022-07-04T12:03:01;24.50;99.90
9099;DHT22;4585;51.414;6.776;2022-07-04T12:05:35;24.70;99.90
9099;DHT22;4585;51.414;6.776;2022-07-04T12:08:05;24.30;99.90
9099;DHT22;4585;51.414;6.776;2022-07-04T12:10:33;24.00;99.90
9099;DHT22;4585;51.414;6.776;2022-07-04T12:13:06;23.60;99.90
9099;DHT22;4585;51.414;6.776;2022-07-04T12:15:42;23.70;99.90
9099;DHT22;4585;51.414;6.776;2022-07-04T12:20:52;23.90;99.90
9099;DHT22;4585;51.414;6.776;2022-07-04T12:23:25;24.10;99.90
9099;DHT22;4585;51.414;6.776;2022-07-04T12:25:54;24.40;99.90
9099;DHT22;4585;51.414;6.776;2022-07-04T12:28:23;24.70;99.90
9099;DHT22;4585;51.414;6.776;2022-07-04T12:30:55;24.80;99.90
9099;DHT22;4585;51.414;6.776;2022-07-04T12:33:28;24.50;99.90
9099;DHT22;4585;51.414;6.776;2022-07-04T12:36:06;24.30;99.90
9099;DHT22;4585;51.414;6.776;2022-07-04T12:38:36;24.20;99.90
9099;DHT22;4585;51.414;6.776;2022-07-04T12:41:10;24.00;99.90
9099;DHT22;4585;51.414;6.776;2022-07-04T12:43:46;23.80;99.90
9099;DHT22;4585;51.414;6.776;2022-07-04T12:46:30;23.90;99.90
9099;DHT22;4585;51.414;6.776;2022-07-04T12:49:04;23.80;99.90
9099;DHT22;4585;51.414;6.776;2022-07-04T12:51:32;23.80;99.90
9099;DHT22;4585;51.414;6.776;2022-07-04T12:54:08;24.00;99.90
9099;DHT22;4585;51.414;6.776;2022-07-04T12:56:39;24.30;99.90
9099;DHT22;4585;51.414;6.776;2022-07-04T12:59:19;24.70;99.90
9099;DHT22;4585;51.414;6.776;2022-07-04T13:01:48;24.80;99.90
9099;DHT22;4585;51.414;6.776;2022-07-04T13:04:22;25.00;99.90
9099;DHT22;4585;51.414;6.776;2022-07-04T13:06:51;25.30;99.90
9099;DHT22;4585;51.414;6.776;2022-07-04T13:09:18;25.60;99.90
9099;DHT22;4585;51.414;6.776;2022-07-04T13:11:44;25.70;99.90
9099;DHT22;4585;51.414;6.776;2022-07-04T13:14:36;25.60;99.90
9099;DHT22;4585;51.414;6.776;2022-07-04T13:17:05;25.60;99.90
9099;DHT22;4585;51.414;6.776;2022-07-04T13:19:34;25.40;99.90
9099;DHT22;4585;51.414;6.776;2022-07-04T13:22:06;25.00;99.90
9099;DHT22;4585;51.414;6.776;2022-07-04T13:24:40;24.50;99.90
9099;DHT22;4585;51.414;6.776;2022-07-04T13:27:09;24.60;99.90
9099;DHT22;4585;51.414;6.776;2022-07-04T13:29:44;25.00;99.90
9099;DHT22;4585;51.414;6.776;2022-07-04T13:32:16;25.30;99.90
9099;DHT22;4585;51.414;6.776;2022-07-04T13:34:47;25.40;99.90
9099;DHT22;4585;51.414;6.776;2022-07-04T13:37:18;25.10;99.90
9099;DHT22;4585;51.414;6.776;2022-07-04T13:39:51;25.00;99.90
9099;DHT22;4585;51.414;6.776;2022-07-04T13:42:19;25.20;99.90
9099;DHT22;4585;51.414;6.776;2022-07-04T13:45:07;25.30;99.90
9099;DHT22;4585;51.414;6.776;2022-07-04T13:47:35;25.20;99.90
9099;DHT22;4585;51.414;6.776;2022-07-04T13:50:07;24.90;99.90
9099;DHT22;4585;51.414;6.776;2022-07-04T13:52:36;24.80;99.90
9099;DHT22;4585;51.414;6.776;2022-07-04T13:55:02;24.90;99.90
9099;DHT22;4585;51.414;6.776;2022-07-04T13:57:37;24.90;99.90
9099;DHT22;4585;51.414;6.776;2022-07-04T14:00:09;25.30;99.90
9099;DHT22;4585;51.414;6.776;2022-07-04T14:02:39;25.60;99.90
9099;DHT22;4585;51.414;6.776;2022-07-04T14:05:08;25.70;99.90
9099;DHT22;4585;51.414;6.776;2022-07-04T14:07:37;25.80;99.90
9099;DHT22;4585;51.414;6.776;2022-07-04T14:10:07;26.00;99.90
9099;DHT22;4585;51.414;6.776;2022-07-04T14:12:33;26.40;99.90
9099;DHT22;4585;51.414;6.776;2022-07-04T14:14:59;26.60;99.90
9099;DHT22;4585;51.414;6.776;2022-07-04T14:17:31;26.60;99.90
9099;DHT22;4585;51.414;6.776;2022-07-04T14:20:05;26.30;99.90
9099;DHT22;4585;51.414;6.776;2022-07-04T14:22:34;25.80;99.90
9099;DHT22;4585;51.414;6.776;2022-07-04T14:25:09;25.30;99.90
9099;DHT22;4585;51.414;6.776;2022-07-04T14:27:44;25.40;99.90
9099;DHT22;4585;51.414;6.776;2022-07-04T14:30:13;25.60;99.90
9099;DHT22;4585;51.414;6.776;2022-07-04T14:32:41;25.70;99.90
9099;DHT22;4585;51.414;6.776;2022-07-04T14:35:10;25.80;99.90
9099;DHT22;4585;51.414;6.776;2022-07-04T14:37:36;25.70;99.90
9099;DHT22;4585;51.414;6.776;2022-07-04T14:40:08;25.40;99.90
9099;DHT22;4585;51.414;6.776;2022-07-04T14:42:37;25.10;99.90
9099;DHT22;4585;51.414;6.776;2022-07-04T14:45:12;25.00;99.90
9099;DHT22;4585;51.414;6.776;2022-07-04T14:47:43;24.90;99.90
9099;DHT22;4585;51.414;6.776;2022-07-04T14:50:09;24.90;99.90
9099;DHT22;4585;51.414;6.776;2022-07-04T14:52:40;25.00;99.90
9099;DHT22;4585;51.414;6.776;2022-07-04T14:55:09;25.00;99.90
9099;DHT22;4585;51.414;6.776;2022-07-04T14:57:41;25.30;99.90
9099;DHT22;4585;51.414;6.776;2022-07-04T15:00:07;25.30;99.90
9099;DHT22;4585;51.414;6.776;2022-07-04T15:02:41;25.40;99.90
9099;DHT22;4585;51.414;6.776;2022-07-04T15:05:10;25.40;99.90
9099;DHT22;4585;51.414;6.776;2022-07-04T15:07:48;25.50;99.90
9099;DHT22;4585;51.414;6.776;2022-07-04T15:10:19;25.30;99.90
9099;DHT22;4585;51.414;6.776;2022-07-04T15:12:48;25.30;99.90
9099;DHT22;4585;51.414;6.776;2022-07-04T15:15:19;25.30;99.90
9099;DHT22;4585;51.414;6.776;2022-07-04T15:17:48;25.40;99.90
9099;DHT22;4585;51.414;6.776;2022-07-04T15:20:19;25.50;99.90
9099;DHT22;4585;51.414;6.776;2022-07-04T15:23:07;25.60;99.90
9099;DHT22;4585;51.414;6.776;2022-07-04T15:25:56;25.50;99.90
9099;DHT22;4585;51.414;6.776;2022-07-04T15:28:28;25.40;99.90
9099;DHT22;4585;51.414;6.776;2022-07-04T15:31:00;25.30;99.90
9099;DHT22;4585;51.414;6.776;2022-07-04T15:33:34;25.10;99.90
9099;DHT22;4585;51.414;6.776;2022-07-04T15:36:04;25.00;99.90
9099;DHT22;4585;51.414;6.776;2022-07-04T15:38:32;25.10;99.90
9099;DHT22;4585;51.414;6.776;2022-07-04T15:41:01;25.30;99.90
9099;DHT22;4585;51.414;6.776;2022-07-04T15:43:33;25.30;99.90
9099;DHT22;4585;51.414;6.776;2022-07-04T15:46:05;25.30;99.90
9099;DHT22;4585;51.414;6.776;2022-07-04T15:48:31;25.30;99.90
9099;DHT22;4585;51.414;6.776;2022-07-04T15:51:01;25.10;99.90
9099;DHT22;4585;51.414;6.776;2022-07-04T15:53:30;25.10;99.90
9099;DHT22;4585;51.414;6.776;2022-07-04T15:55:59;25.20;99.90
9099;DHT22;4585;51.414;6.776;2022-07-04T15:58:35;25.10;99.90
9099;DHT22;4585;51.414;6.776;2022-07-04T16:01:04;25.00;99.90
9099;DHT22;4585;51.414;6.776;2022-07-04T16:03:36;25.00;99.90
9099;DHT22;4585;51.414;6.776;2022-07-04T16:06:06;24.90;99.90
9099;DHT22;4585;51.414;6.776;2022-07-04T16:08:37;24.70;99.90
9099;DHT22;4585;51.414;6.776;2022-07-04T16:11:03;24.70;99.90
9099;DHT22;4585;51.414;6.776;2022-07-04T16:13:33;24.80;99.90
9099;DHT22;4585;51.414;6.776;2022-07-04T16:16:01;24.80;99.90
9099;DHT22;4585;51.414;6.776;2022-07-04T16:18:32;24.70;99.90
9099;DHT22;4585;51.414;6.776;2022-07-04T16:21:01;24.50;99.90
9099;DHT22;4585;51.414;6.776;2022-07-04T16:23:30;24.20;99.90
9099;DHT22;4585;51.414;6.776;2022-07-04T16:26:01;24.10;99.90
9099;DHT22;4585;51.414;6.776;2022-07-04T16:28:30;23.90;99.90
9099;DHT22;4585;51.414;6.776;2022-07-04T16:30:59;23.80;99.90
9099;DHT22;4585;51.414;6.776;2022-07-04T16:33:29;23.70;99.90
9099;DHT22;4585;51.414;6.776;2022-07-04T16:35:55;23.60;99.90
9099;DHT22;4585;51.414;6.776;2022-07-04T16:38:31;23.60;99.90
9099;DHT22;4585;51.414;6.776;2022-07-04T16:41:05;23.80;99.90
9099;DHT22;4585;51.414;6.776;2022-07-04T16:43:34;24.10;99.90